createdAt,value
2022-11-01T00:00:11.611Z,11.80
2022-11-01T00:02:43.460Z,11.80
2022-11-01T00:05:13.129Z,11.90
2022-11-01T00:07:42.315Z,11.90
2022-11-01T00:10:11.927Z,11.80
2022-11-01T00:12:41.547Z,11.90
2022-11-01T00:15:10.783Z,11.90
2022-11-01T00:17:39.955Z,11.90
2022-11-01T00:20:10.150Z,11.90
2022-11-01T00:22:39.388Z,11.80
2022-11-01T00:25:09.230Z,11.90
2022-11-01T00:27:38.427Z,11.80
2022-11-01T00:30:08.084Z,11.80
2022-11-01T00:32:37.278Z,11.70
2022-11-01T00:35:06.814Z,11.70
2022-11-01T00:37:36.066Z,11.70
2022-11-01T00:40:05.917Z,11.80
2022-11-01T00:42:35.084Z,11.80
2022-11-01T00:45:05.222Z,11.80
2022-11-01T00:47:34.453Z,11.80
2022-11-01T00:50:04.061Z,11.80
2022-11-01T00:52:33.327Z,11.80
2022-11-01T00:55:02.510Z,11.80
2022-11-01T00:57:32.621Z,11.80
2022-11-01T01:00:02.686Z,11.80
2022-11-01T01:02:32.988Z,11.80
2022-11-01T01:05:02.296Z,11.90
2022-11-01T01:07:32.107Z,11.80
2022-11-01T01:10:01.850Z,11.70
2022-11-01T01:12:33.033Z,11.70
2022-11-01T01:15:02.395Z,11.70
2022-11-01T01:17:33.890Z,11.70
2022-11-01T01:20:04.123Z,11.60
2022-11-01T01:22:33.575Z,11.60
2022-11-01T01:25:02.827Z,11.60
2022-11-01T01:27:32.199Z,11.60
2022-11-01T01:30:01.562Z,11.50
2022-11-01T01:32:31.347Z,11.50
2022-11-01T01:35:00.553Z,11.50
2022-11-01T01:37:29.837Z,11.50
2022-11-01T01:39:59.446Z,11.40
2022-11-01T01:42:39.155Z,11.40
2022-11-01T01:45:23.677Z,11.40
2022-11-01T01:47:55.545Z,11.30
2022-11-01T01:50:33.726Z,11.30
2022-11-01T01:53:15.957Z,11.30
2022-11-01T01:55:51.414Z,11.30
2022-11-01T01:58:29.018Z,11.20
2022-11-01T02:00:59.163Z,11.20
2022-11-01T02:03:33.721Z,11.10
2022-11-01T02:06:07.546Z,11.10
2022-11-01T02:08:45.068Z,11.00
2022-11-01T02:11:17.135Z,11.10
2022-11-01T02:13:47.399Z,11.10
2022-11-01T02:16:52.804Z,11.00
2022-11-01T02:20:25.818Z,11.10
2022-11-01T02:23:46.118Z,11.00
2022-11-01T02:26:48.922Z,11.00
2022-11-01T02:29:41.940Z,11.00
2022-11-01T02:32:46.729Z,10.90
2022-11-01T02:35:47.727Z,11.00
2022-11-01T02:38:46.375Z,10.90
2022-11-01T02:41:28.803Z,10.90
2022-11-01T02:44:06.060Z,10.90
2022-11-01T02:46:59.433Z,10.90
2022-11-01T02:49:46.250Z,11.00
2022-11-01T02:52:26.852Z,11.00
2022-11-01T02:55:29.913Z,11.00
2022-11-01T02:58:04.857Z,11.00
2022-11-01T03:00:36.791Z,11.00
2022-11-01T03:03:23.678Z,11.00
2022-11-01T03:05:52.885Z,11.00
2022-11-01T03:08:35.258Z,11.00
2022-11-01T03:11:12.329Z,11.00
2022-11-01T03:13:47.198Z,11.00
2022-11-01T03:17:10.212Z,11.00
2022-11-01T03:20:22.041Z,10.90
2022-11-01T03:22:58.850Z,10.90
2022-11-01T03:25:40.904Z,10.90
2022-11-01T03:28:22.698Z,10.90
2022-11-01T03:31:06.333Z,10.90
2022-11-01T03:33:42.622Z,11.00
2022-11-01T03:36:19.980Z,11.00
2022-11-01T03:39:16.368Z,11.00
2022-11-01T03:41:52.847Z,11.00
2022-11-01T03:44:23.096Z,10.90
2022-11-01T03:46:52.473Z,11.00
2022-11-01T03:49:21.670Z,11.00
2022-11-01T03:51:50.821Z,11.00
2022-11-01T03:54:20.040Z,11.00
2022-11-01T03:56:49.362Z,11.00
2022-11-01T03:59:18.572Z,11.00
2022-11-01T04:01:47.887Z,11.00
2022-11-01T04:04:17.365Z,11.00
2022-11-01T04:06:46.589Z,11.00
2022-11-01T04:09:15.773Z,11.00
2022-11-01T04:11:44.937Z,11.00
2022-11-01T04:14:32.793Z,11.00
2022-11-01T04:17:20.593Z,11.00
2022-11-01T04:20:08.424Z,11.00
2022-11-01T04:22:38.870Z,11.00
2022-11-01T04:25:08.301Z,11.00
2022-11-01T04:27:37.574Z,11.00
2022-11-01T04:30:07.528Z,11.00
2022-11-01T04:32:36.725Z,11.00
2022-11-01T04:37:36.858Z,11.00
2022-11-01T04:40:07.680Z,11.00
2022-11-01T04:42:37.921Z,11.00
2022-11-01T04:45:09.086Z,11.10
2022-11-01T04:47:38.409Z,11.10
2022-11-01T04:50:07.893Z,11.10
2022-11-01T04:52:37.090Z,11.00
2022-11-01T04:55:06.860Z,11.00
2022-11-01T04:57:43.562Z,11.10
2022-11-01T05:00:14.131Z,11.10
2022-11-01T05:02:43.319Z,11.20
2022-11-01T05:05:13.085Z,11.20
2022-11-01T05:07:42.344Z,11.20
2022-11-01T05:10:11.828Z,11.20
2022-11-01T05:12:41.503Z,11.20
2022-11-01T05:15:10.807Z,11.20
2022-11-01T05:17:42.031Z,11.20
2022-11-01T05:20:11.707Z,11.20
2022-11-01T05:22:40.903Z,11.20
2022-11-01T05:25:10.475Z,11.20
2022-11-01T05:27:39.754Z,11.20
2022-11-01T05:30:10.352Z,11.20
2022-11-01T05:32:39.590Z,11.20
2022-11-01T05:35:09.287Z,11.20
2022-11-01T05:37:38.599Z,11.20
2022-11-01T05:40:08.909Z,11.20
2022-11-01T05:42:39.710Z,11.20
2022-11-01T05:45:10.611Z,11.10
2022-11-01T05:47:44.168Z,11.10
2022-11-01T05:50:15.938Z,11.10
2022-11-01T05:52:45.265Z,11.20
2022-11-01T05:55:14.481Z,11.20
2022-11-01T05:57:43.791Z,11.30
2022-11-01T06:00:13.340Z,11.30
2022-11-01T06:02:42.882Z,11.20
2022-11-01T06:05:12.159Z,11.30
2022-11-01T06:07:41.572Z,11.30
2022-11-01T06:10:10.900Z,11.30
2022-11-01T06:12:40.191Z,11.40
2022-11-01T06:15:10.080Z,11.40
2022-11-01T06:17:39.291Z,11.40
2022-11-01T06:20:09.240Z,11.40
2022-11-01T06:22:39.170Z,11.40
2022-11-01T06:25:09.571Z,11.40
2022-11-01T06:27:38.706Z,11.50
2022-11-01T06:30:09.121Z,11.60
2022-11-01T06:32:38.407Z,11.60
2022-11-01T06:35:08.289Z,11.60
2022-11-01T06:37:38.774Z,11.60
2022-11-01T06:40:08.950Z,11.60
2022-11-01T06:42:41.182Z,11.60
2022-11-01T06:45:13.051Z,11.60
2022-11-01T06:47:47.552Z,11.60
2022-11-01T06:50:17.172Z,11.60
2022-11-01T06:52:46.400Z,11.60
2022-11-01T06:55:16.006Z,11.60
2022-11-01T06:57:58.528Z,11.60
2022-11-01T07:00:29.945Z,11.70
2022-11-01T07:03:02.571Z,11.80
2022-11-01T07:05:37.336Z,11.80
2022-11-01T07:08:11.741Z,11.80
2022-11-01T07:10:43.365Z,11.80
2022-11-01T07:13:14.133Z,11.90
2022-11-01T07:15:43.386Z,11.90
2022-11-01T07:18:12.564Z,11.90
2022-11-01T07:20:42.654Z,12.00
2022-11-01T07:23:18.323Z,12.10
2022-11-01T07:25:52.871Z,12.20
2022-11-01T07:28:22.476Z,12.20
2022-11-01T07:30:53.700Z,12.30
2022-11-01T07:33:23.165Z,12.30
2022-11-01T07:35:52.744Z,12.30
2022-11-01T07:38:21.978Z,12.30
2022-11-01T07:40:53.320Z,12.30
2022-11-01T07:43:23.527Z,12.30
2022-11-01T07:45:53.961Z,12.40
2022-11-01T07:48:27.006Z,12.50
2022-11-01T07:50:57.484Z,12.50
2022-11-01T07:53:26.691Z,12.60
2022-11-01T07:55:55.865Z,12.60
2022-11-01T07:58:25.214Z,12.70
2022-11-01T08:00:54.537Z,12.70
2022-11-01T08:03:24.095Z,12.70
2022-11-01T08:05:53.544Z,12.80
2022-11-01T08:08:25.525Z,12.80
2022-11-01T08:10:54.731Z,12.80
2022-11-01T08:13:25.372Z,12.70
2022-11-01T08:15:55.457Z,12.70
2022-11-01T08:18:24.812Z,12.80
2022-11-01T08:20:54.199Z,12.70
2022-11-01T08:23:23.609Z,12.80
2022-11-01T08:25:52.875Z,12.90
2022-11-01T08:28:22.961Z,13.10
2022-11-01T08:30:52.297Z,13.30
2022-11-01T08:33:21.571Z,13.50
2022-11-01T08:35:51.053Z,13.60
2022-11-01T08:38:20.370Z,13.80
2022-11-01T08:40:49.765Z,13.90
2022-11-01T08:43:19.277Z,13.90
2022-11-01T08:45:49.023Z,14.00
2022-11-01T08:48:18.285Z,14.00
2022-11-01T08:50:47.477Z,14.10
2022-11-01T08:53:16.827Z,14.20
2022-11-01T08:55:46.115Z,14.50
2022-11-01T08:58:15.333Z,14.70
2022-11-01T09:00:44.566Z,14.90
2022-11-01T09:03:14.793Z,15.00
2022-11-01T09:05:43.999Z,15.00
2022-11-01T09:08:13.251Z,15.00
2022-11-01T09:10:42.472Z,15.10
2022-11-01T09:13:11.752Z,15.10
2022-11-01T09:15:41.055Z,15.10
2022-11-01T09:18:10.309Z,15.20
2022-11-01T09:20:39.596Z,15.30
2022-11-01T09:23:09.052Z,15.30
2022-11-01T09:25:39.589Z,15.30
2022-11-01T09:28:08.805Z,15.20
2022-11-01T09:30:45.131Z,15.10
2022-11-01T09:33:24.425Z,14.90
2022-11-01T09:35:59.233Z,14.70
2022-11-01T09:38:29.689Z,14.60
2022-11-01T09:41:04.886Z,14.70
2022-11-01T09:43:39.930Z,14.80
2022-11-01T09:46:17.684Z,14.70
2022-11-01T09:48:48.129Z,14.80
2022-11-01T09:51:25.535Z,14.90
2022-11-01T09:54:00.966Z,14.90
2022-11-01T09:57:20.904Z,14.90
2022-11-01T09:59:59.330Z,15.00
2022-11-01T10:02:36.672Z,15.00
2022-11-01T10:05:25.359Z,15.10
2022-11-01T10:08:22.292Z,15.00
2022-11-01T10:10:59.670Z,14.80
2022-11-01T10:13:50.715Z,14.70
2022-11-01T10:16:42.166Z,14.60
2022-11-01T10:19:18.259Z,14.50
2022-11-01T10:21:51.344Z,14.50
2022-11-01T10:24:39.445Z,14.60
2022-11-01T10:27:18.472Z,14.60
2022-11-01T10:30:08.712Z,14.70
2022-11-01T10:33:02.684Z,14.70
2022-11-01T10:35:40.338Z,14.70
2022-11-01T10:38:41.561Z,14.80
2022-11-01T10:41:35.408Z,14.80
2022-11-01T10:44:16.291Z,14.90
2022-11-01T10:46:50.573Z,14.90
2022-11-01T10:50:05.410Z,14.90
2022-11-01T10:52:54.521Z,14.90
2022-11-01T10:55:41.570Z,15.00
2022-11-01T10:59:08.204Z,15.00
2022-11-01T11:01:44.273Z,14.90
2022-11-01T11:04:16.512Z,14.90
2022-11-01T11:06:46.335Z,14.70
2022-11-01T11:09:35.893Z,14.60
2022-11-01T11:12:19.185Z,14.60
2022-11-01T11:14:53.373Z,14.60
2022-11-01T11:17:30.184Z,14.50
2022-11-01T11:20:06.356Z,14.50
2022-11-01T11:22:43.465Z,14.40
2022-11-01T11:25:21.337Z,14.30
2022-11-01T11:27:53.158Z,14.40
2022-11-01T11:30:35.819Z,14.40
2022-11-01T11:33:05.861Z,14.40
2022-11-01T11:35:37.302Z,14.40
2022-11-01T11:38:07.565Z,14.50
2022-11-01T11:40:39.513Z,14.50
2022-11-01T11:43:31.708Z,14.50
2022-11-01T11:46:05.428Z,14.50
2022-11-01T11:48:47.128Z,14.50
2022-11-01T11:51:16.995Z,14.50
2022-11-01T11:54:24.115Z,14.60
2022-11-01T11:57:13.756Z,14.70
2022-11-01T11:59:55.260Z,14.70
2022-11-01T12:02:35.755Z,14.80
2022-11-01T12:05:15.289Z,14.70
2022-11-01T12:07:55.111Z,14.80
2022-11-01T12:10:39.249Z,14.80
2022-11-01T12:13:32.127Z,14.90
2022-11-01T12:16:17.644Z,14.90
2022-11-01T12:18:57.350Z,14.90
2022-11-01T12:21:37.557Z,15.00
2022-11-01T12:24:18.532Z,15.00
2022-11-01T12:26:51.417Z,15.00
2022-11-01T12:29:50.561Z,15.00
2022-11-01T12:32:33.863Z,15.10
2022-11-01T12:35:18.158Z,15.10
2022-11-01T12:38:14.275Z,15.10
2022-11-01T12:40:50.002Z,15.10
2022-11-01T12:43:54.325Z,15.20
2022-11-01T12:46:39.615Z,15.20
2022-11-01T12:49:38.008Z,15.30
2022-11-01T12:52:37.308Z,15.30
2022-11-01T12:55:24.808Z,15.30
2022-11-01T12:57:55.063Z,15.20
2022-11-01T13:00:50.289Z,15.20
2022-11-01T13:03:29.416Z,15.10
2022-11-01T13:06:32.025Z,15.00
2022-11-01T13:09:26.067Z,15.00
2022-11-01T13:12:02.616Z,15.00
2022-11-01T13:15:16.578Z,15.10
2022-11-01T13:18:09.229Z,15.10
2022-11-01T13:20:50.199Z,15.10
2022-11-01T13:23:43.560Z,15.10
2022-11-01T13:26:27.903Z,15.10
2022-11-01T13:29:36.948Z,15.10
2022-11-01T13:32:33.068Z,15.00
2022-11-01T13:35:51.021Z,15.00
2022-11-01T13:39:18.532Z,14.90
2022-11-01T13:42:11.367Z,14.80
2022-11-01T13:45:00.519Z,14.70
2022-11-01T13:47:48.396Z,14.70
2022-11-01T13:50:29.887Z,14.70
2022-11-01T13:53:01.131Z,14.70
2022-11-01T13:55:53.863Z,14.70
2022-11-01T13:58:24.225Z,14.60
2022-11-01T14:00:55.885Z,14.60
2022-11-01T14:03:30.138Z,14.50
2022-11-01T14:06:09.400Z,14.50
2022-11-01T14:08:52.139Z,14.30
2022-11-01T14:11:44.965Z,14.20
2022-11-01T14:14:32.537Z,14.10
2022-11-01T14:17:19.972Z,13.90
2022-11-01T14:20:14.472Z,13.80
2022-11-01T14:22:45.062Z,13.60
2022-11-01T14:25:14.329Z,13.50
2022-11-01T14:27:51.825Z,13.50
2022-11-01T14:30:24.868Z,13.50
2022-11-01T14:33:01.174Z,13.40
2022-11-01T14:35:37.754Z,13.40
2022-11-01T14:38:14.492Z,13.30
2022-11-01T14:40:58.975Z,13.40
2022-11-01T14:43:39.113Z,13.40
2022-11-01T14:46:20.269Z,13.50
2022-11-01T14:49:10.712Z,13.50
2022-11-01T14:51:51.955Z,13.40
2022-11-01T14:54:42.630Z,13.30
2022-11-01T14:57:31.363Z,13.30
2022-11-01T15:00:28.611Z,13.40
2022-11-01T15:03:02.471Z,13.30
2022-11-01T15:05:32.339Z,13.20
2022-11-01T15:08:02.130Z,13.20
2022-11-01T15:10:42.315Z,13.20
2022-11-01T15:13:17.350Z,13.10
2022-11-01T15:16:01.898Z,13.10
2022-11-01T15:18:32.046Z,13.10
2022-11-01T15:21:02.230Z,13.10
2022-11-01T15:23:37.294Z,13.10
2022-11-01T15:26:10.190Z,13.10
2022-11-01T15:29:04.944Z,13.10
2022-11-01T15:31:35.853Z,13.20
2022-11-01T15:34:30.484Z,13.10
2022-11-01T15:37:18.674Z,13.00
2022-11-01T15:39:48.342Z,13.00
2022-11-01T15:42:27.489Z,13.00
2022-11-01T15:44:57.135Z,13.00
2022-11-01T15:47:29.173Z,13.10
2022-11-01T15:50:06.151Z,13.00
2022-11-01T15:52:35.871Z,12.90
2022-11-01T15:55:17.430Z,12.90
2022-11-01T15:57:56.460Z,12.90
2022-11-01T16:00:40.816Z,12.90
2022-11-01T16:03:56.335Z,12.90
2022-11-01T16:06:43.477Z,13.00
2022-11-01T16:09:23.815Z,13.00
2022-11-01T16:11:58.715Z,12.90
2022-11-01T16:14:38.253Z,12.90
2022-11-01T16:17:35.108Z,13.00
2022-11-01T16:20:36.846Z,12.90
2022-11-01T16:23:14.547Z,13.00
2022-11-01T16:25:43.806Z,13.00
2022-11-01T16:28:13.124Z,12.90
2022-11-01T16:30:48.271Z,12.90
2022-11-01T16:33:35.782Z,12.90
2022-11-01T16:36:31.812Z,13.00
2022-11-01T16:39:01.344Z,12.90
2022-11-01T16:41:40.689Z,12.90
2022-11-01T16:44:18.679Z,12.90
2022-11-01T16:46:48.305Z,12.80
2022-11-01T16:49:27.929Z,12.80
2022-11-01T16:51:57.559Z,12.80
2022-11-01T16:54:27.275Z,12.70
2022-11-01T16:56:58.591Z,12.70
2022-11-01T16:59:33.723Z,12.70
2022-11-01T17:02:24.932Z,12.70
2022-11-01T17:05:08.091Z,12.70
2022-11-01T17:07:37.266Z,12.70
2022-11-01T17:10:32.762Z,12.60
2022-11-01T17:13:04.153Z,12.60
2022-11-01T17:15:39.972Z,12.50
2022-11-01T17:18:17.676Z,12.50
2022-11-01T17:20:49.277Z,12.50
2022-11-01T17:23:23.170Z,12.50
2022-11-01T17:25:54.785Z,12.50
2022-11-01T17:28:24.973Z,12.50
2022-11-01T17:30:55.058Z,12.60
2022-11-01T17:33:24.255Z,12.70
2022-11-01T17:35:53.910Z,12.80
2022-11-01T17:38:34.868Z,12.80
2022-11-01T17:41:07.380Z,12.80
2022-11-01T17:43:36.970Z,12.80
2022-11-01T17:46:18.492Z,12.80
2022-11-01T17:48:47.699Z,12.80
2022-11-01T17:51:18.088Z,12.90
2022-11-01T17:53:47.353Z,12.90
2022-11-01T17:56:16.496Z,12.90
2022-11-01T17:58:51.968Z,12.90
2022-11-01T18:01:22.369Z,12.80
2022-11-01T18:03:51.783Z,12.80
2022-11-01T18:06:21.047Z,12.90
2022-11-01T18:08:52.437Z,12.90
2022-11-01T18:11:41.846Z,12.70
2022-11-01T18:14:41.758Z,12.60
2022-11-01T18:17:49.090Z,12.40
2022-11-01T18:20:54.983Z,12.20
2022-11-01T18:23:27.288Z,12.10
2022-11-01T18:25:56.685Z,11.90
2022-11-01T18:28:27.780Z,11.80
2022-11-01T18:31:10.942Z,11.70
2022-11-01T18:33:54.776Z,11.60
2022-11-01T18:36:32.810Z,11.50
2022-11-01T18:39:36.652Z,11.40
2022-11-01T18:42:13.404Z,11.40
2022-11-01T18:44:44.365Z,11.30
2022-11-01T18:47:22.318Z,11.30
2022-11-01T18:49:53.248Z,11.40
2022-11-01T18:52:23.872Z,11.50
2022-11-01T18:54:56.952Z,11.50
2022-11-01T18:57:29.522Z,11.60
2022-11-01T19:00:00.961Z,11.80
2022-11-01T19:02:31.208Z,11.80
2022-11-01T19:05:20.811Z,11.90
2022-11-01T19:08:10.996Z,11.90
2022-11-01T19:10:42.348Z,11.90
2022-11-01T19:13:25.860Z,12.00
2022-11-01T19:15:57.525Z,12.00
2022-11-01T19:18:26.782Z,12.00
2022-11-01T19:20:59.820Z,12.10
2022-11-01T19:23:49.619Z,12.10
2022-11-01T19:26:31.909Z,12.00
2022-11-01T19:29:11.675Z,12.00
2022-11-01T19:31:44.098Z,12.20
2022-11-01T19:34:42.848Z,12.20
2022-11-01T19:37:34.915Z,12.20
2022-11-01T19:40:36.019Z,12.20
2022-11-01T19:43:18.881Z,12.10
2022-11-01T19:45:52.627Z,12.00
2022-11-01T19:48:30.735Z,11.90
2022-11-01T19:51:00.847Z,11.80
2022-11-01T19:53:40.131Z,11.80
2022-11-01T19:56:21.161Z,11.80
2022-11-01T19:59:03.725Z,11.60
2022-11-01T20:01:42.397Z,11.40
2022-11-01T20:04:24.465Z,11.20
2022-11-01T20:07:11.448Z,11.10
2022-11-01T20:09:41.304Z,11.00
2022-11-01T20:12:12.054Z,10.90
2022-11-01T20:14:41.451Z,10.80
2022-11-01T20:17:10.928Z,10.80
2022-11-01T20:19:40.259Z,10.70
2022-11-01T20:22:09.447Z,10.60
2022-11-01T20:24:38.657Z,10.60
2022-11-01T20:27:07.875Z,10.50
2022-11-01T20:29:37.250Z,10.40
2022-11-01T20:32:06.468Z,10.30
2022-11-01T20:34:36.442Z,10.20
2022-11-01T20:37:27.465Z,10.20
2022-11-01T20:39:55.090Z,10.20
2022-11-01T20:42:24.561Z,10.30
2022-11-01T20:44:53.810Z,10.20
2022-11-01T20:47:23.026Z,10.20
2022-11-01T20:49:53.176Z,10.20
2022-11-01T20:52:40.059Z,10.10
2022-11-01T20:55:11.949Z,10.10
2022-11-01T20:57:41.259Z,10.00
2022-11-01T21:00:19.032Z,9.90
2022-11-01T21:02:49.392Z,9.80
2022-11-01T21:05:27.560Z,9.80
2022-11-01T21:08:25.642Z,9.70
2022-11-01T21:11:02.773Z,9.60
2022-11-01T21:13:45.284Z,9.60
2022-11-01T21:16:31.647Z,9.50
2022-11-01T21:19:02.429Z,9.50
2022-11-01T21:21:35.278Z,9.40
2022-11-01T21:24:34.094Z,9.40
2022-11-01T21:27:12.354Z,9.30
2022-11-01T21:29:48.135Z,9.30
2022-11-01T21:32:30.615Z,9.30
2022-11-01T21:35:11.199Z,9.30
2022-11-01T21:37:40.896Z,9.40
2022-11-01T21:40:27.272Z,9.40
2022-11-01T21:42:58.042Z,9.50
2022-11-01T21:45:32.260Z,9.50
2022-11-01T21:48:22.042Z,9.60
2022-11-01T21:50:51.371Z,9.70
2022-11-01T21:53:20.617Z,9.70
2022-11-01T21:55:49.810Z,9.70
2022-11-01T21:58:20.253Z,9.80
2022-11-01T22:00:49.551Z,9.80
2022-11-01T22:03:18.789Z,9.70
2022-11-01T22:05:48.273Z,9.70
2022-11-01T22:08:17.622Z,9.80
2022-11-01T22:10:46.808Z,9.80
2022-11-01T22:13:16.125Z,9.80
2022-11-01T22:15:45.353Z,9.80
2022-11-01T22:18:14.564Z,9.80
2022-11-01T22:20:43.805Z,9.80
2022-11-01T22:23:13.063Z,9.70
2022-11-01T22:25:42.307Z,9.70
2022-11-01T22:28:11.507Z,9.70
2022-11-01T22:30:40.681Z,9.70
2022-11-01T22:33:11.226Z,9.80
2022-11-01T22:35:40.443Z,9.90
2022-11-01T22:38:19.104Z,9.90
2022-11-01T22:41:13.642Z,10.00
2022-11-01T22:43:46.470Z,10.00
2022-11-01T22:46:43.699Z,10.00
2022-11-01T22:49:28.963Z,10.00
2022-11-01T22:52:11.175Z,10.00
2022-11-01T22:54:46.264Z,10.00
2022-11-01T22:57:23.925Z,10.10
2022-11-01T23:00:01.760Z,10.10
2022-11-01T23:02:38.961Z,10.10
2022-11-01T23:05:08.423Z,10.10
2022-11-01T23:08:06.650Z,10.10
2022-11-01T23:10:37.032Z,10.20
2022-11-01T23:13:30.574Z,10.30
2022-11-01T23:16:24.903Z,10.20
2022-11-01T23:18:59.306Z,10.20
2022-11-01T23:21:29.497Z,10.30
2022-11-01T23:24:00.039Z,10.20
2022-11-01T23:26:31.374Z,10.20
2022-11-01T23:29:01.824Z,10.30
2022-11-01T23:31:31.430Z,10.30
2022-11-01T23:34:00.674Z,10.30
2022-11-01T23:36:35.279Z,10.30
2022-11-01T23:39:12.198Z,10.30
2022-11-01T23:41:44.310Z,10.40
2022-11-01T23:44:29.171Z,10.40
2022-11-01T23:47:26.410Z,10.40
2022-11-01T23:50:02.679Z,10.40
2022-11-01T23:52:42.683Z,10.40
2022-11-01T23:55:25.147Z,10.40
2022-11-01T23:57:58.731Z,10.40
